createdAt,value
2022-11-05T00:02:44.254Z,98247.94
2022-11-05T00:06:05.518Z,98251.00
2022-11-05T00:09:27.428Z,98251.00
2022-11-05T00:12:49.343Z,98246.03
2022-11-05T00:16:09.890Z,98239.75
2022-11-05T00:19:13.462Z,98246.34
2022-11-05T00:22:33.581Z,98253.56
2022-11-05T00:25:36.159Z,98266.06
2022-11-05T00:28:43.585Z,98265.25
2022-11-05T00:31:46.211Z,98267.03
2022-11-05T00:34:48.802Z,98279.53
2022-11-05T00:37:53.874Z,98279.19
2022-11-05T00:40:56.611Z,98282.72
2022-11-05T00:44:18.446Z,98286.56
2022-11-05T00:47:35.000Z,98285.16
2022-11-05T00:50:37.953Z,98293.13
2022-11-05T00:53:40.567Z,98297.78
2022-11-05T00:56:43.268Z,98293.13
2022-11-05T00:59:47.334Z,98308.06
2022-11-05T01:02:50.028Z,98305.00
2022-11-05T01:05:54.636Z,98302.63
2022-11-05T01:08:57.441Z,98310.47
2022-11-05T01:12:00.069Z,98316.41
2022-11-05T01:15:04.387Z,98319.94
2022-11-05T01:18:07.039Z,98320.09
2022-11-05T01:21:14.176Z,98318.50
2022-11-05T01:24:16.761Z,98319.00
2022-11-05T01:27:19.405Z,98323.31
2022-11-05T01:30:23.934Z,98330.38
2022-11-05T01:33:26.540Z,98331.81
2022-11-05T01:36:29.158Z,98331.81
2022-11-05T01:39:31.821Z,98336.31
2022-11-05T01:42:34.681Z,98329.91
2022-11-05T01:45:38.711Z,98332.47
2022-11-05T01:48:41.539Z,98333.44
2022-11-05T01:51:45.923Z,98339.53
2022-11-05T01:54:48.600Z,98335.34
2022-11-05T01:57:51.661Z,98336.94
2022-11-05T02:00:56.047Z,98347.22
2022-11-05T02:04:01.018Z,98340.78
2022-11-05T02:07:04.123Z,98347.69
2022-11-05T02:10:08.887Z,98347.50
2022-11-05T02:13:11.785Z,98351.22
2022-11-05T02:16:24.766Z,98347.03
2022-11-05T02:19:47.450Z,98344.50
2022-11-05T02:23:26.474Z,98347.50
2022-11-05T02:27:02.110Z,98349.94
2022-11-05T02:30:25.179Z,98351.22
2022-11-05T02:33:36.159Z,98361.31
2022-11-05T02:36:42.829Z,98355.88
2022-11-05T02:39:49.535Z,98352.00
2022-11-05T02:42:59.751Z,98359.88
2022-11-05T02:46:09.647Z,98365.66
2022-11-05T02:49:19.856Z,98365.66
2022-11-05T02:52:26.029Z,98363.25
2022-11-05T02:55:33.833Z,98353.63
2022-11-05T02:58:36.433Z,98362.28
2022-11-05T03:01:41.136Z,98359.56
2022-11-05T03:04:43.878Z,98361.97
2022-11-05T03:07:51.532Z,98362.44
2022-11-05T03:11:00.855Z,98359.72
2022-11-05T03:14:07.656Z,98372.22
2022-11-05T03:17:15.755Z,98377.69
2022-11-05T03:20:20.980Z,98376.41
2022-11-05T03:23:27.022Z,98383.78
2022-11-05T03:26:31.401Z,98386.69
2022-11-05T03:29:37.322Z,98380.44
2022-11-05T03:32:43.362Z,98386.84
2022-11-05T03:35:48.348Z,98387.81
2022-11-05T03:38:53.291Z,98387.00
2022-11-05T03:41:56.782Z,98393.88
2022-11-05T03:45:01.427Z,98400.47
2022-11-05T03:48:06.212Z,98404.13
2022-11-05T03:51:13.306Z,98406.06
2022-11-05T03:54:16.089Z,98414.56
2022-11-05T03:57:21.971Z,98421.16
2022-11-05T04:00:24.777Z,98423.72
2022-11-05T04:03:36.043Z,98434.31
2022-11-05T04:06:56.324Z,98425.97
2022-11-05T04:10:17.109Z,98431.38
2022-11-05T04:13:25.883Z,98432.19
2022-11-05T04:16:45.629Z,98445.44
2022-11-05T04:20:07.105Z,98436.78
2022-11-05T04:23:28.526Z,98437.91
2022-11-05T04:26:31.152Z,98449.56
2022-11-05T04:29:51.506Z,98454.19
2022-11-05T04:32:58.969Z,98454.56
2022-11-05T04:36:03.007Z,98465.91
2022-11-05T04:39:05.724Z,98461.31
2022-11-05T04:42:08.284Z,98460.78
2022-11-05T04:45:11.042Z,98463.72
2022-11-05T04:48:13.933Z,98469.50
2022-11-05T04:51:17.912Z,98471.75
2022-11-05T04:54:20.671Z,98472.88
2022-11-05T04:57:23.218Z,98476.72
2022-11-05T05:00:25.928Z,98479.78
2022-11-05T05:03:28.493Z,98480.28
2022-11-05T05:06:32.470Z,98483.50
2022-11-05T05:09:35.046Z,98489.75
2022-11-05T05:12:37.881Z,98486.34
2022-11-05T05:15:40.461Z,98495.66
2022-11-05T05:18:46.265Z,98487.75
2022-11-05T05:21:50.008Z,98491.81
2022-11-05T05:24:53.314Z,98495.81
2022-11-05T05:27:58.154Z,98506.56
2022-11-05T05:31:02.750Z,98498.88
2022-11-05T05:34:06.366Z,98509.44
2022-11-05T05:37:10.780Z,98508.16
2022-11-05T05:40:14.068Z,98504.13
2022-11-05T05:43:17.444Z,98515.81
2022-11-05T05:46:20.689Z,98523.53
2022-11-05T05:49:23.842Z,98519.88
2022-11-05T05:52:28.154Z,98521.66
2022-11-05T05:55:31.458Z,98530.63
2022-11-05T05:58:35.804Z,98526.63
2022-11-05T06:01:38.874Z,98539.00
2022-11-05T06:04:41.955Z,98537.22
2022-11-05T06:07:46.344Z,98542.81
2022-11-05T06:10:52.324Z,98550.56
2022-11-05T06:13:54.991Z,98551.03
2022-11-05T06:16:57.681Z,98555.69
2022-11-05T06:20:00.457Z,98560.16
2022-11-05T06:23:04.549Z,98564.34
2022-11-05T06:26:09.342Z,98563.69
2022-11-05T06:29:11.994Z,98567.41
2022-11-05T06:32:14.543Z,98573.66
2022-11-05T06:35:17.324Z,98591.97
2022-11-05T06:38:21.475Z,98589.38
2022-11-05T06:41:24.069Z,98590.63
2022-11-05T06:44:26.621Z,98588.69
2022-11-05T06:47:29.339Z,98588.41
2022-11-05T06:50:31.965Z,98593.19
2022-11-05T06:53:36.222Z,98592.75
2022-11-05T06:56:38.819Z,98610.59
2022-11-05T06:59:41.848Z,98610.19
2022-11-05T07:02:44.537Z,98618.72
2022-11-05T07:05:49.188Z,98623.03
2022-11-05T07:08:53.254Z,98640.41
2022-11-05T07:11:56.039Z,98631.09
2022-11-05T07:14:58.689Z,98649.25
2022-11-05T07:18:02.190Z,98651.53
2022-11-05T07:21:05.895Z,98655.41
2022-11-05T07:24:10.203Z,98658.09
2022-11-05T07:27:12.833Z,98667.13
2022-11-05T07:30:15.553Z,98673.06
2022-11-05T07:33:18.327Z,98670.66
2022-11-05T07:36:20.894Z,98684.19
2022-11-05T07:39:25.023Z,98680.16
2022-11-05T07:42:27.595Z,98684.53
2022-11-05T07:45:31.889Z,98692.53
2022-11-05T07:48:34.748Z,98696.50
2022-11-05T07:51:37.422Z,98697.31
2022-11-05T07:54:41.467Z,98697.63
2022-11-05T07:57:44.844Z,98700.25
2022-11-05T08:00:47.933Z,98712.53
2022-11-05T08:03:50.709Z,98708.94
2022-11-05T08:06:53.449Z,98707.38
2022-11-05T08:09:57.456Z,98721.88
2022-11-05T08:13:00.280Z,98719.59
2022-11-05T08:16:03.372Z,98722.84
2022-11-05T08:19:06.076Z,98728.38
2022-11-05T08:22:08.862Z,98731.16
2022-11-05T08:25:13.318Z,98726.22
2022-11-05T08:28:16.066Z,98736.00
2022-11-05T08:31:18.771Z,98741.47
2022-11-05T08:34:21.487Z,98749.31
2022-11-05T08:37:24.349Z,98753.34
2022-11-05T08:40:28.556Z,98754.47
2022-11-05T08:43:31.223Z,98759.47
2022-11-05T08:46:41.270Z,98755.38
2022-11-05T08:49:44.261Z,98760.16
2022-11-05T08:52:46.973Z,98760.22
2022-11-05T08:55:51.537Z,98770.81
2022-11-05T08:58:54.371Z,98772.78
2022-11-05T09:01:57.123Z,98777.59
2022-11-05T09:04:59.850Z,98771.50
2022-11-05T09:08:02.507Z,98781.66
2022-11-05T09:11:09.117Z,98777.03
2022-11-05T09:14:11.681Z,98783.66
2022-11-05T09:17:18.557Z,98782.94
2022-11-05T09:20:21.219Z,98788.41
2022-11-05T09:23:24.663Z,98793.56
2022-11-05T09:26:28.538Z,98792.81
2022-11-05T09:29:31.117Z,98800.50
2022-11-05T09:32:33.932Z,98797.13
2022-11-05T09:35:39.112Z,98806.69
2022-11-05T09:38:41.634Z,98808.63
2022-11-05T09:41:46.907Z,98807.56
2022-11-05T09:44:53.425Z,98811.16
2022-11-05T09:47:58.229Z,98798.63
2022-11-05T09:51:01.151Z,98810.25
2022-11-05T09:54:05.551Z,98805.09
2022-11-05T09:57:15.460Z,98812.22
2022-11-05T10:00:18.717Z,98814.75
2022-11-05T10:03:23.396Z,98818.03
2022-11-05T10:06:27.065Z,98822.56
2022-11-05T10:09:31.272Z,98828.16
2022-11-05T10:12:38.262Z,98832.88
2022-11-05T10:15:53.254Z,98838.06
2022-11-05T10:18:59.593Z,98844.13
2022-11-05T10:22:10.511Z,98843.66
2022-11-05T10:25:19.019Z,98845.09
2022-11-05T10:28:25.565Z,98851.72
2022-11-05T10:31:34.282Z,98855.41
2022-11-05T10:34:39.523Z,98860.78
2022-11-05T10:37:42.259Z,98866.31
2022-11-05T10:40:54.056Z,98864.41
2022-11-05T10:44:04.064Z,98855.06
2022-11-05T10:47:18.762Z,98864.06
2022-11-05T10:50:25.466Z,98864.88
2022-11-05T10:53:31.314Z,98859.81
2022-11-05T10:56:36.521Z,98867.25
2022-11-05T10:59:40.545Z,98864.59
2022-11-05T11:02:43.560Z,98865.19
2022-11-05T11:05:46.250Z,98866.94
2022-11-05T11:08:50.373Z,98875.88
2022-11-05T11:12:06.431Z,98872.69
2022-11-05T11:15:17.199Z,98873.41
2022-11-05T11:18:34.672Z,98865.84
2022-11-05T11:21:41.728Z,98863.38
2022-11-05T11:24:47.021Z,98877.88
2022-11-05T11:27:49.841Z,98867.63
2022-11-05T11:31:01.964Z,98877.88
2022-11-05T11:34:05.861Z,98877.19
2022-11-05T11:37:15.288Z,98876.81
2022-11-05T11:40:23.736Z,98875.53
2022-11-05T11:43:28.624Z,98868.66
2022-11-05T11:46:34.816Z,98874.13
2022-11-05T11:49:44.168Z,98875.56
2022-11-05T11:52:46.780Z,98880.09
2022-11-05T11:55:59.166Z,98871.28
2022-11-05T11:59:04.217Z,98873.16
2022-11-05T12:02:37.845Z,98880.66
2022-11-05T12:05:46.207Z,98873.19
2022-11-05T12:09:00.562Z,98875.00
2022-11-05T12:12:12.991Z,98863.72
2022-11-05T12:15:28.704Z,98872.47
2022-11-05T12:18:39.547Z,98867.13
2022-11-05T12:21:52.952Z,98863.06
2022-11-05T12:25:01.556Z,98861.50
2022-11-05T12:28:19.189Z,98853.63
2022-11-05T12:31:29.327Z,98857.41
2022-11-05T12:34:42.065Z,98859.69
2022-11-05T12:37:51.913Z,98859.78
2022-11-05T12:41:06.076Z,98856.53
2022-11-05T12:44:17.781Z,98858.84
2022-11-05T12:47:35.654Z,98865.94
2022-11-05T12:50:45.261Z,98865.53
2022-11-05T12:53:57.968Z,98871.66
2022-11-05T12:57:03.364Z,98875.22
2022-11-05T13:00:10.537Z,98872.88
2022-11-05T13:03:24.319Z,98871.25
2022-11-05T13:06:30.994Z,98873.19
2022-11-05T13:09:36.523Z,98865.31
2022-11-05T13:12:41.137Z,98870.28
2022-11-05T13:15:50.479Z,98863.84
2022-11-05T13:18:55.400Z,98864.56
2022-11-05T13:22:07.967Z,98866.38
2022-11-05T13:25:14.742Z,98858.75
2022-11-05T13:28:22.664Z,98863.22
2022-11-05T13:31:29.329Z,98867.50
2022-11-05T13:34:37.261Z,98862.84
2022-11-05T13:38:01.766Z,98867.91
2022-11-05T13:41:17.515Z,98875.19
2022-11-05T13:45:01.638Z,98882.38
2022-11-05T13:48:28.939Z,98877.28
2022-11-05T13:51:48.273Z,98875.81
2022-11-05T13:55:15.989Z,98879.41
2022-11-05T13:58:33.295Z,98886.88
2022-11-05T14:01:44.783Z,98880.59
2022-11-05T14:04:48.986Z,98884.63
2022-11-05T14:07:52.684Z,98884.09
2022-11-05T14:11:02.829Z,98887.91
2022-11-05T14:14:07.189Z,98884.66
2022-11-05T14:17:18.168Z,98888.84
2022-11-05T14:20:39.837Z,98884.38
2022-11-05T14:23:50.470Z,98883.91
2022-11-05T14:27:34.490Z,98888.09
2022-11-05T14:30:46.222Z,98881.00
2022-11-05T14:33:56.471Z,98892.25
2022-11-05T14:37:22.597Z,98887.59
2022-11-05T14:40:36.259Z,98894.47
2022-11-05T14:43:46.290Z,98894.97
2022-11-05T14:46:51.738Z,98893.53
2022-11-05T14:49:59.818Z,98906.84
2022-11-05T14:53:08.566Z,98903.31
2022-11-05T14:56:13.406Z,98910.84
2022-11-05T15:00:02.060Z,98910.03
2022-11-05T15:03:31.139Z,98912.31
2022-11-05T15:06:35.672Z,98923.66
2022-11-05T15:09:41.684Z,98914.50
2022-11-05T15:12:47.932Z,98913.91
2022-11-05T15:15:51.164Z,98908.22
2022-11-05T15:18:56.726Z,98922.50
2022-11-05T15:22:02.685Z,98927.00
2022-11-05T15:25:06.863Z,98918.25
2022-11-05T15:28:19.579Z,98920.69
2022-11-05T15:31:27.580Z,98915.25
2022-11-05T15:34:33.392Z,98922.75
2022-11-05T15:37:36.104Z,98928.38
2022-11-05T15:40:38.782Z,98925.34
2022-11-05T15:43:47.956Z,98921.22
2022-11-05T15:47:05.994Z,98919.75
2022-11-05T15:50:14.924Z,98921.00
2022-11-05T15:56:48.301Z,98919.19
2022-11-05T15:59:51.190Z,98922.53
2022-11-05T16:02:56.036Z,98917.59
2022-11-05T16:06:01.484Z,98921.94
2022-11-05T16:09:04.886Z,98924.19
2022-11-05T16:12:21.298Z,98936.88
2022-11-05T16:15:26.069Z,98938.13
2022-11-05T16:18:33.224Z,98936.34
2022-11-05T16:21:53.998Z,98938.94
2022-11-05T16:24:56.837Z,98939.69
2022-11-05T16:28:00.250Z,98941.94
2022-11-05T16:31:05.014Z,98945.28
2022-11-05T16:34:07.867Z,98947.97
2022-11-05T16:37:15.171Z,98954.53
2022-11-05T16:40:20.230Z,98969.00
2022-11-05T16:43:24.625Z,98969.91
2022-11-05T16:46:29.543Z,98965.34
2022-11-05T16:49:32.098Z,98966.91
2022-11-05T16:52:36.034Z,98971.31
2022-11-05T16:55:40.066Z,98968.22
2022-11-05T16:58:44.227Z,98964.88
2022-11-05T17:01:50.320Z,98965.91
2022-11-05T17:04:55.698Z,98973.16
2022-11-05T17:08:01.136Z,98976.59
2022-11-05T17:11:03.714Z,98985.56
2022-11-05T17:14:06.392Z,98981.22
2022-11-05T17:17:09.180Z,98981.78
2022-11-05T17:20:15.282Z,98976.00
2022-11-05T17:23:20.676Z,98985.59
2022-11-05T17:26:23.779Z,98982.91
2022-11-05T17:29:26.365Z,98982.53
2022-11-05T17:32:29.126Z,98979.38
2022-11-05T17:35:31.973Z,98981.13
2022-11-05T17:38:35.959Z,98993.75
2022-11-05T17:41:38.598Z,98985.66
2022-11-05T17:44:41.224Z,98991.16
2022-11-05T17:47:43.819Z,98991.50
2022-11-05T17:50:48.171Z,98993.44
2022-11-05T17:53:52.105Z,98996.75
2022-11-05T17:56:54.710Z,99002.34
2022-11-05T17:59:57.345Z,99006.16
2022-11-05T18:02:59.998Z,99015.00
2022-11-05T18:06:03.093Z,99021.03
2022-11-05T18:09:08.445Z,99021.66
2022-11-05T18:12:11.110Z,99031.44
2022-11-05T18:15:14.417Z,99031.47
2022-11-05T18:18:17.000Z,99032.09
2022-11-05T18:21:19.566Z,99033.06
2022-11-05T18:24:24.088Z,99039.00
2022-11-05T18:27:27.717Z,99045.25
2022-11-05T18:30:30.228Z,99035.59
2022-11-05T18:33:33.517Z,99028.03
2022-11-05T18:36:36.191Z,99036.22
2022-11-05T18:39:40.323Z,99036.22
2022-11-05T18:42:43.850Z,99031.91
2022-11-05T18:45:46.443Z,99037.66
2022-11-05T18:48:49.057Z,99040.06
2022-11-05T18:51:51.788Z,99036.31
2022-11-05T18:54:55.877Z,99028.75
2022-11-05T18:57:58.837Z,99029.06
2022-11-05T19:01:06.444Z,99017.97
2022-11-05T19:04:09.752Z,99022.63
2022-11-05T19:07:12.771Z,99017.19
2022-11-05T19:10:16.806Z,99021.81
2022-11-05T19:13:19.532Z,99016.16
2022-11-05T19:16:24.060Z,99024.38
2022-11-05T19:19:26.833Z,99021.75
2022-11-05T19:22:29.478Z,99028.72
2022-11-05T19:25:33.458Z,99027.91
2022-11-05T19:28:36.431Z,99024.66
2022-11-05T19:31:39.136Z,99019.75
2022-11-05T19:34:41.767Z,99013.22
2022-11-05T19:37:44.385Z,99015.91
2022-11-05T19:40:48.420Z,99018.63
2022-11-05T19:43:51.183Z,99020.25
2022-11-05T19:46:53.797Z,99021.91
2022-11-05T19:49:56.549Z,99031.41
2022-11-05T19:52:59.263Z,99024.69
2022-11-05T19:56:06.919Z,99020.09
2022-11-05T19:59:09.984Z,99026.88
2022-11-05T20:02:16.302Z,99031.22
2022-11-05T20:05:19.312Z,99023.84
2022-11-05T20:08:22.066Z,99029.47
2022-11-05T20:11:26.529Z,99039.13
2022-11-05T20:14:29.751Z,99033.72
2022-11-05T20:17:32.453Z,99036.50
2022-11-05T20:20:35.483Z,99038.41
2022-11-05T20:23:38.087Z,99048.72
2022-11-05T20:26:42.099Z,99046.84
2022-11-05T20:29:44.682Z,99053.41
2022-11-05T20:32:47.267Z,99063.72
2022-11-05T20:35:49.942Z,99062.63
2022-11-05T20:38:55.162Z,99064.00
2022-11-05T20:42:00.563Z,99049.28
2022-11-05T20:45:03.219Z,99057.69
2022-11-05T20:48:06.672Z,99052.25
2022-11-05T20:51:10.905Z,99049.25
2022-11-05T20:54:13.520Z,99057.94
2022-11-05T20:57:17.485Z,99051.16
2022-11-05T21:00:22.320Z,99068.00
2022-11-05T21:03:27.100Z,99061.25
2022-11-05T21:06:30.461Z,99049.59
2022-11-05T21:09:33.121Z,99051.50
2022-11-05T21:12:37.104Z,99042.56
2022-11-05T21:15:39.788Z,99048.84
2022-11-05T21:18:42.372Z,99042.66
2022-11-05T21:21:44.964Z,99041.59
2022-11-05T21:24:47.633Z,99038.31
2022-11-05T21:27:51.631Z,99051.91
2022-11-05T21:30:54.285Z,99045.41
2022-11-05T21:33:56.824Z,99046.78
2022-11-05T21:36:59.754Z,99046.50
2022-11-05T21:40:02.346Z,99048.69
2022-11-05T21:43:06.398Z,99051.16
2022-11-05T21:46:09.003Z,99054.94
2022-11-05T21:49:11.572Z,99048.69
2022-11-05T21:52:32.034Z,99049.78
2022-11-05T21:55:52.422Z,99055.22
2022-11-05T21:59:13.762Z,99044.44
2022-11-05T22:02:18.258Z,99043.88
2022-11-05T22:05:20.889Z,99047.97
2022-11-05T22:08:23.432Z,99048.53
2022-11-05T22:11:26.063Z,99047.16
2022-11-05T22:14:30.543Z,99048.78
2022-11-05T22:17:33.274Z,99051.47
2022-11-05T22:20:38.848Z,99043.88
2022-11-05T22:23:41.459Z,99047.16
2022-11-05T22:26:44.910Z,99047.72
2022-11-05T22:29:49.408Z,99042.03
2022-11-05T22:32:52.012Z,99042.88
2022-11-05T22:35:54.575Z,99045.03
2022-11-05T22:38:57.245Z,99039.63
2022-11-05T22:42:04.233Z,99037.44
2022-11-05T22:45:11.681Z,99036.09
2022-11-05T22:48:14.699Z,99038.00
2022-11-05T22:51:19.108Z,99033.91
2022-11-05T22:54:21.636Z,99025.56
2022-11-05T22:57:24.319Z,99028.22
2022-11-05T23:00:36.094Z,99028.78
2022-11-05T23:03:39.786Z,99026.03
2022-11-05T23:06:59.507Z,99014.38
2022-11-05T23:10:19.834Z,99023.03
2022-11-05T23:13:22.410Z,99024.69
2022-11-05T23:16:43.768Z,99021.72
2022-11-05T23:20:04.051Z,99007.38
2022-11-05T23:23:27.318Z,99012.50
2022-11-05T23:26:47.699Z,99013.00
2022-11-05T23:29:50.305Z,99016.28
2022-11-05T23:32:55.021Z,99022.50
2022-11-05T23:36:14.975Z,99009.25
2022-11-05T23:39:17.720Z,99011.69
2022-11-05T23:42:38.176Z,99014.97
2022-11-05T23:45:59.153Z,99002.78
2022-11-05T23:49:03.062Z,98986.56
2022-11-05T23:52:05.782Z,98995.50
2022-11-05T23:55:09.147Z,98998.50
2022-11-05T23:58:12.351Z,99002.81
